sensor_id;sensor_type;location;lat;lon;timestamp;temperature;humidity
69679;DHT22;56915;52.046;4.854;2023-04-19T00:02:01;8.00;88.40
69679;DHT22;56915;52.046;4.854;2023-04-19T00:04:28;8.00;88.70
69679;DHT22;56915;52.046;4.854;2023-04-19T00:06:56;8.00;88.80
69679;DHT22;56915;52.046;4.854;2023-04-19T00:09:24;8.00;89.50
69679;DHT22;56915;52.046;4.854;2023-04-19T00:11:51;8.00;90.00
69679;DHT22;56915;52.046;4.854;2023-04-19T00:14:18;8.00;90.10
69679;DHT22;56915;52.046;4.854;2023-04-19T00:16:45;8.00;90.10
69679;DHT22;56915;52.046;4.854;2023-04-19T00:19:12;8.00;90.50
69679;DHT22;56915;52.046;4.854;2023-04-19T00:21:39;8.00;91.00
69679;DHT22;56915;52.046;4.854;2023-04-19T00:24:05;8.20;91.70
69679;DHT22;56915;52.046;4.854;2023-04-19T00:26:32;8.30;91.70
69679;DHT22;56915;52.046;4.854;2023-04-19T00:28:59;8.50;91.70
69679;DHT22;56915;52.046;4.854;2023-04-19T00:31:26;8.80;91.40
69679;DHT22;56915;52.046;4.854;2023-04-19T00:33:53;8.90;91.00
69679;DHT22;56915;52.046;4.854;2023-04-19T00:36:19;9.00;90.70
69679;DHT22;56915;52.046;4.854;2023-04-19T00:38:46;9.20;90.40
69679;DHT22;56915;52.046;4.854;2023-04-19T00:41:13;9.20;90.20
69679;DHT22;56915;52.046;4.854;2023-04-19T00:43:40;9.30;89.50
69679;DHT22;56915;52.046;4.854;2023-04-19T00:46:07;9.30;89.30
69679;DHT22;56915;52.046;4.854;2023-04-19T00:48:34;9.30;89.30
69679;DHT22;56915;52.046;4.854;2023-04-19T00:51:03;9.30;89.40
69679;DHT22;56915;52.046;4.854;2023-04-19T00:53:30;9.40;89.60
69679;DHT22;56915;52.046;4.854;2023-04-19T00:55:59;9.40;89.60
69679;DHT22;56915;52.046;4.854;2023-04-19T00:58:27;9.50;89.40
69679;DHT22;56915;52.046;4.854;2023-04-19T01:00:57;9.60;88.70
69679;DHT22;56915;52.046;4.854;2023-04-19T01:03:24;9.60;88.50
69679;DHT22;56915;52.046;4.854;2023-04-19T01:05:53;9.70;88.10
69679;DHT22;56915;52.046;4.854;2023-04-19T01:08:20;9.70;87.70
69679;DHT22;56915;52.046;4.854;2023-04-19T01:10:47;9.70;87.60
69679;DHT22;56915;52.046;4.854;2023-04-19T01:13:14;9.70;87.60
69679;DHT22;56915;52.046;4.854;2023-04-19T01:15:41;9.70;87.40
69679;DHT22;56915;52.046;4.854;2023-04-19T01:18:08;9.70;87.10
69679;DHT22;56915;52.046;4.854;2023-04-19T01:20:34;9.70;86.90
69679;DHT22;56915;52.046;4.854;2023-04-19T01:23:01;9.60;86.70
69679;DHT22;56915;52.046;4.854;2023-04-19T01:25:28;9.50;86.70
69679;DHT22;56915;52.046;4.854;2023-04-19T01:27:55;9.30;87.20
69679;DHT22;56915;52.046;4.854;2023-04-19T01:30:22;9.20;88.60
69679;DHT22;56915;52.046;4.854;2023-04-19T01:32:49;9.10;89.10
69679;DHT22;56915;52.046;4.854;2023-04-19T01:35:16;8.90;89.40
69679;DHT22;56915;52.046;4.854;2023-04-19T01:37:42;8.80;90.30
69679;DHT22;56915;52.046;4.854;2023-04-19T01:40:09;8.60;90.30
69679;DHT22;56915;52.046;4.854;2023-04-19T01:42:36;8.50;90.30
69679;DHT22;56915;52.046;4.854;2023-04-19T01:45:03;8.40;90.80
69679;DHT22;56915;52.046;4.854;2023-04-19T01:47:30;8.30;91.30
69679;DHT22;56915;52.046;4.854;2023-04-19T01:49:57;8.20;91.60
69679;DHT22;56915;52.046;4.854;2023-04-19T01:52:24;8.10;92.10
69679;DHT22;56915;52.046;4.854;2023-04-19T01:54:51;8.00;92.60
69679;DHT22;56915;52.046;4.854;2023-04-19T01:57:18;8.00;92.90
69679;DHT22;56915;52.046;4.854;2023-04-19T01:59:45;8.00;92.90
69679;DHT22;56915;52.046;4.854;2023-04-19T02:02:11;8.00;93.50
69679;DHT22;56915;52.046;4.854;2023-04-19T02:04:38;8.00;93.60
69679;DHT22;56915;52.046;4.854;2023-04-19T02:07:05;8.00;93.30
69679;DHT22;56915;52.046;4.854;2023-04-19T02:09:34;8.10;93.40
69679;DHT22;56915;52.046;4.854;2023-04-19T02:12:02;8.10;93.50
69679;DHT22;56915;52.046;4.854;2023-04-19T02:14:29;8.20;93.50
69679;DHT22;56915;52.046;4.854;2023-04-19T02:16:56;8.20;93.30
69679;DHT22;56915;52.046;4.854;2023-04-19T02:19:23;8.30;93.40
69679;DHT22;56915;52.046;4.854;2023-04-19T02:21:50;8.40;93.20
69679;DHT22;56915;52.046;4.854;2023-04-19T02:24:19;8.50;93.30
69679;DHT22;56915;52.046;4.854;2023-04-19T02:26:45;8.50;93.20
69679;DHT22;56915;52.046;4.854;2023-04-19T02:29:12;8.60;93.20
69679;DHT22;56915;52.046;4.854;2023-04-19T02:31:39;8.70;93.20
69679;DHT22;56915;52.046;4.854;2023-04-19T02:34:11;8.80;93.10
69679;DHT22;56915;52.046;4.854;2023-04-19T02:36:38;8.80;93.00
69679;DHT22;56915;52.046;4.854;2023-04-19T02:39:04;8.90;92.80
69679;DHT22;56915;52.046;4.854;2023-04-19T02:41:31;9.00;92.90
69679;DHT22;56915;52.046;4.854;2023-04-19T02:43:58;9.00;92.80
69679;DHT22;56915;52.046;4.854;2023-04-19T02:46:25;9.10;92.70
69679;DHT22;56915;52.046;4.854;2023-04-19T02:48:52;9.10;92.60
69679;DHT22;56915;52.046;4.854;2023-04-19T02:51:19;9.10;92.60
69679;DHT22;56915;52.046;4.854;2023-04-19T02:53:45;9.20;92.50
69679;DHT22;56915;52.046;4.854;2023-04-19T02:56:12;9.20;92.60
69679;DHT22;56915;52.046;4.854;2023-04-19T02:58:39;9.20;92.50
69679;DHT22;56915;52.046;4.854;2023-04-19T03:01:06;9.20;92.40
69679;DHT22;56915;52.046;4.854;2023-04-19T03:03:33;9.20;92.40
69679;DHT22;56915;52.046;4.854;2023-04-19T03:06:00;9.20;92.70
69679;DHT22;56915;52.046;4.854;2023-04-19T03:08:27;9.20;92.40
69679;DHT22;56915;52.046;4.854;2023-04-19T03:10:54;9.20;92.20
69679;DHT22;56915;52.046;4.854;2023-04-19T03:13:21;9.30;92.20
69679;DHT22;56915;52.046;4.854;2023-04-19T03:15:47;9.30;92.20
69679;DHT22;56915;52.046;4.854;2023-04-19T03:18:14;9.30;92.20
69679;DHT22;56915;52.046;4.854;2023-04-19T03:20:42;9.30;92.20
69679;DHT22;56915;52.046;4.854;2023-04-19T03:23:09;9.30;92.20
69679;DHT22;56915;52.046;4.854;2023-04-19T03:25:36;9.40;92.10
69679;DHT22;56915;52.046;4.854;2023-04-19T03:28:03;9.40;92.10
69679;DHT22;56915;52.046;4.854;2023-04-19T03:30:30;9.40;91.90
69679;DHT22;56915;52.046;4.854;2023-04-19T03:32:56;9.50;91.80
69679;DHT22;56915;52.046;4.854;2023-04-19T03:35:25;9.50;91.60
69679;DHT22;56915;52.046;4.854;2023-04-19T03:37:52;9.50;91.60
69679;DHT22;56915;52.046;4.854;2023-04-19T03:40:19;9.50;91.50
69679;DHT22;56915;52.046;4.854;2023-04-19T03:42:46;9.60;91.40
69679;DHT22;56915;52.046;4.854;2023-04-19T03:45:13;9.60;91.40
69679;DHT22;56915;52.046;4.854;2023-04-19T03:47:40;9.60;91.30
69679;DHT22;56915;52.046;4.854;2023-04-19T03:50:07;9.60;91.20
69679;DHT22;56915;52.046;4.854;2023-04-19T03:52:34;9.60;91.10
69679;DHT22;56915;52.046;4.854;2023-04-19T03:55:01;9.60;90.90
69679;DHT22;56915;52.046;4.854;2023-04-19T03:57:27;9.60;91.00
69679;DHT22;56915;52.046;4.854;2023-04-19T03:59:54;9.60;90.90
69679;DHT22;56915;52.046;4.854;2023-04-19T04:02:21;9.70;91.00
69679;DHT22;56915;52.046;4.854;2023-04-19T04:04:54;9.70;90.60
69679;DHT22;56915;52.046;4.854;2023-04-19T04:07:21;9.70;90.50
69679;DHT22;56915;52.046;4.854;2023-04-19T04:09:50;9.70;90.40
69679;DHT22;56915;52.046;4.854;2023-04-19T04:12:17;9.70;90.30
69679;DHT22;56915;52.046;4.854;2023-04-19T04:14:44;9.80;90.30
69679;DHT22;56915;52.046;4.854;2023-04-19T04:17:10;9.70;90.10
69679;DHT22;56915;52.046;4.854;2023-04-19T04:19:37;9.80;90.10
69679;DHT22;56915;52.046;4.854;2023-04-19T04:22:05;9.80;90.00
69679;DHT22;56915;52.046;4.854;2023-04-19T04:24:39;9.80;89.80
69679;DHT22;56915;52.046;4.854;2023-04-19T04:27:09;9.80;89.80
69679;DHT22;56915;52.046;4.854;2023-04-19T04:29:37;9.80;89.50
69679;DHT22;56915;52.046;4.854;2023-04-19T04:32:06;9.80;89.20
69679;DHT22;56915;52.046;4.854;2023-04-19T04:34:37;9.90;88.90
69679;DHT22;56915;52.046;4.854;2023-04-19T04:37:04;9.90;88.70
69679;DHT22;56915;52.046;4.854;2023-04-19T04:39:32;9.80;88.60
69679;DHT22;56915;52.046;4.854;2023-04-19T04:42:07;9.80;88.40
69679;DHT22;56915;52.046;4.854;2023-04-19T04:44:35;9.80;88.30
69679;DHT22;56915;52.046;4.854;2023-04-19T04:47:02;9.80;88.00
69679;DHT22;56915;52.046;4.854;2023-04-19T04:49:29;9.80;88.00
69679;DHT22;56915;52.046;4.854;2023-04-19T04:51:56;9.70;88.60
69679;DHT22;56915;52.046;4.854;2023-04-19T04:54:24;9.60;89.00
69679;DHT22;56915;52.046;4.854;2023-04-19T04:56:50;9.60;89.30
69679;DHT22;56915;52.046;4.854;2023-04-19T04:59:17;9.50;89.40
69679;DHT22;56915;52.046;4.854;2023-04-19T05:01:44;9.50;89.40
69679;DHT22;56915;52.046;4.854;2023-04-19T05:04:11;9.40;89.10
69679;DHT22;56915;52.046;4.854;2023-04-19T05:06:38;9.30;89.10
69679;DHT22;56915;52.046;4.854;2023-04-19T05:09:06;9.30;89.10
69679;DHT22;56915;52.046;4.854;2023-04-19T05:11:33;9.20;89.30
69679;DHT22;56915;52.046;4.854;2023-04-19T05:14:01;9.20;89.60
69679;DHT22;56915;52.046;4.854;2023-04-19T05:16:28;9.10;89.60
69679;DHT22;56915;52.046;4.854;2023-04-19T05:18:55;9.10;89.70
69679;DHT22;56915;52.046;4.854;2023-04-19T05:21:22;9.10;89.70
69679;DHT22;56915;52.046;4.854;2023-04-19T05:23:48;9.10;89.60
69679;DHT22;56915;52.046;4.854;2023-04-19T05:26:15;9.10;89.60
69679;DHT22;56915;52.046;4.854;2023-04-19T05:28:43;9.00;89.50
69679;DHT22;56915;52.046;4.854;2023-04-19T05:31:10;9.00;89.60
69679;DHT22;56915;52.046;4.854;2023-04-19T05:33:37;9.00;89.60
69679;DHT22;56915;52.046;4.854;2023-04-19T05:36:04;9.00;89.40
69679;DHT22;56915;52.046;4.854;2023-04-19T05:38:31;9.10;89.20
69679;DHT22;56915;52.046;4.854;2023-04-19T05:40:58;9.10;89.00
69679;DHT22;56915;52.046;4.854;2023-04-19T05:43:25;9.20;88.60
69679;DHT22;56915;52.046;4.854;2023-04-19T05:45:51;9.20;89.00
69679;DHT22;56915;52.046;4.854;2023-04-19T05:48:18;9.20;88.20
69679;DHT22;56915;52.046;4.854;2023-04-19T05:50:45;9.20;88.40
69679;DHT22;56915;52.046;4.854;2023-04-19T05:53:12;9.30;88.40
69679;DHT22;56915;52.046;4.854;2023-04-19T05:55:38;9.30;88.30
69679;DHT22;56915;52.046;4.854;2023-04-19T05:58:05;9.20;88.30
69679;DHT22;56915;52.046;4.854;2023-04-19T06:00:32;9.30;88.60
69679;DHT22;56915;52.046;4.854;2023-04-19T06:02:59;9.30;88.40
69679;DHT22;56915;52.046;4.854;2023-04-19T06:05:26;9.30;88.10
69679;DHT22;56915;52.046;4.854;2023-04-19T06:07:53;9.40;87.60
69679;DHT22;56915;52.046;4.854;2023-04-19T06:10:24;9.40;86.70
69679;DHT22;56915;52.046;4.854;2023-04-19T06:12:59;9.50;86.50
69679;DHT22;56915;52.046;4.854;2023-04-19T06:15:26;9.50;86.00
69679;DHT22;56915;52.046;4.854;2023-04-19T06:17:52;9.60;85.50
69679;DHT22;56915;52.046;4.854;2023-04-19T06:20:19;9.70;83.70
69679;DHT22;56915;52.046;4.854;2023-04-19T06:22:47;9.70;82.10
69679;DHT22;56915;52.046;4.854;2023-04-19T06:25:14;9.80;81.70
69679;DHT22;56915;52.046;4.854;2023-04-19T06:27:41;9.80;81.20
69679;DHT22;56915;52.046;4.854;2023-04-19T06:30:08;9.90;80.00
69679;DHT22;56915;52.046;4.854;2023-04-19T06:32:35;10.00;79.00
69679;DHT22;56915;52.046;4.854;2023-04-19T06:35:02;10.00;78.40
69679;DHT22;56915;52.046;4.854;2023-04-19T06:37:30;10.10;76.60
69679;DHT22;56915;52.046;4.854;2023-04-19T06:39:59;10.10;74.50
69679;DHT22;56915;52.046;4.854;2023-04-19T06:42:26;10.20;73.60
69679;DHT22;56915;52.046;4.854;2023-04-19T06:44:53;10.20;70.90
69679;DHT22;56915;52.046;4.854;2023-04-19T06:47:22;10.30;70.80
69679;DHT22;56915;52.046;4.854;2023-04-19T06:49:49;10.30;68.80
69679;DHT22;56915;52.046;4.854;2023-04-19T06:52:16;10.40;68.40
69679;DHT22;56915;52.046;4.854;2023-04-19T06:54:47;10.40;67.70
69679;DHT22;56915;52.046;4.854;2023-04-19T06:57:15;10.50;65.90
69679;DHT22;56915;52.046;4.854;2023-04-19T06:59:44;10.50;65.80
69679;DHT22;56915;52.046;4.854;2023-04-19T07:02:11;10.60;65.20
69679;DHT22;56915;52.046;4.854;2023-04-19T07:04:38;10.70;64.20
69679;DHT22;56915;52.046;4.854;2023-04-19T07:07:06;10.80;63.20
69679;DHT22;56915;52.046;4.854;2023-04-19T07:09:33;10.80;62.90
69679;DHT22;56915;52.046;4.854;2023-04-19T07:12:00;10.90;62.00
69679;DHT22;56915;52.046;4.854;2023-04-19T07:14:27;11.00;60.70
69679;DHT22;56915;52.046;4.854;2023-04-19T07:16:54;11.10;59.50
69679;DHT22;56915;52.046;4.854;2023-04-19T07:19:21;11.10;59.40
69679;DHT22;56915;52.046;4.854;2023-04-19T07:21:49;11.20;59.20
69679;DHT22;56915;52.046;4.854;2023-04-19T07:24:16;11.30;58.00
69679;DHT22;56915;52.046;4.854;2023-04-19T07:26:43;11.30;57.20
69679;DHT22;56915;52.046;4.854;2023-04-19T07:29:10;11.40;56.30
69679;DHT22;56915;52.046;4.854;2023-04-19T07:31:39;11.40;55.80
69679;DHT22;56915;52.046;4.854;2023-04-19T07:34:07;11.50;54.20
69679;DHT22;56915;52.046;4.854;2023-04-19T07:36:34;11.50;53.80
69679;DHT22;56915;52.046;4.854;2023-04-19T07:39:02;11.60;54.20
69679;DHT22;56915;52.046;4.854;2023-04-19T07:41:31;11.70;53.90
69679;DHT22;56915;52.046;4.854;2023-04-19T07:43:58;11.80;53.50
69679;DHT22;56915;52.046;4.854;2023-04-19T07:46:25;12.00;52.40
69679;DHT22;56915;52.046;4.854;2023-04-19T07:48:52;12.10;51.30
69679;DHT22;56915;52.046;4.854;2023-04-19T07:51:19;12.10;51.00
69679;DHT22;56915;52.046;4.854;2023-04-19T07:53:46;12.20;51.20
69679;DHT22;56915;52.046;4.854;2023-04-19T07:56:13;12.30;50.10
69679;DHT22;56915;52.046;4.854;2023-04-19T07:58:41;12.40;49.40
69679;DHT22;56915;52.046;4.854;2023-04-19T08:01:09;12.40;49.10
69679;DHT22;56915;52.046;4.854;2023-04-19T08:03:37;12.50;49.00
69679;DHT22;56915;52.046;4.854;2023-04-19T08:06:05;12.60;48.60
69679;DHT22;56915;52.046;4.854;2023-04-19T08:08:35;12.70;48.20
69679;DHT22;56915;52.046;4.854;2023-04-19T08:11:02;12.80;47.80
69679;DHT22;56915;52.046;4.854;2023-04-19T08:13:33;12.80;47.00
69679;DHT22;56915;52.046;4.854;2023-04-19T08:16:00;12.90;46.60
69679;DHT22;56915;52.046;4.854;2023-04-19T08:18:31;13.00;46.00
69679;DHT22;56915;52.046;4.854;2023-04-19T08:20:59;13.10;43.30
69679;DHT22;56915;52.046;4.854;2023-04-19T08:23:25;13.10;43.40
69679;DHT22;56915;52.046;4.854;2023-04-19T08:26:10;13.20;43.40
69679;DHT22;56915;52.046;4.854;2023-04-19T08:28:37;13.30;43.30
69679;DHT22;56915;52.046;4.854;2023-04-19T08:31:07;13.30;43.00
69679;DHT22;56915;52.046;4.854;2023-04-19T08:33:35;13.40;42.20
69679;DHT22;56915;52.046;4.854;2023-04-19T08:36:01;13.40;41.30
69679;DHT22;56915;52.046;4.854;2023-04-19T08:38:28;13.40;41.10
69679;DHT22;56915;52.046;4.854;2023-04-19T08:40:55;13.50;40.90
69679;DHT22;56915;52.046;4.854;2023-04-19T08:43:24;13.50;40.50
69679;DHT22;56915;52.046;4.854;2023-04-19T08:45:51;13.50;40.70
69679;DHT22;56915;52.046;4.854;2023-04-19T08:48:20;13.50;39.60
69679;DHT22;56915;52.046;4.854;2023-04-19T08:50:48;13.50;39.30
69679;DHT22;56915;52.046;4.854;2023-04-19T08:53:33;13.50;39.30
69679;DHT22;56915;52.046;4.854;2023-04-19T08:56:01;13.50;39.00
69679;DHT22;56915;52.046;4.854;2023-04-19T08:58:31;13.50;39.20
69679;DHT22;56915;52.046;4.854;2023-04-19T09:01:18;13.60;38.20
69679;DHT22;56915;52.046;4.854;2023-04-19T09:03:59;13.60;39.10
69679;DHT22;56915;52.046;4.854;2023-04-19T09:06:46;13.70;38.90
69679;DHT22;56915;52.046;4.854;2023-04-19T09:09:24;13.80;39.10
69679;DHT22;56915;52.046;4.854;2023-04-19T09:12:16;13.80;39.80
69679;DHT22;56915;52.046;4.854;2023-04-19T09:14:45;13.90;39.10
69679;DHT22;56915;52.046;4.854;2023-04-19T09:17:17;14.00;37.40
69679;DHT22;56915;52.046;4.854;2023-04-19T09:19:45;14.00;36.40
69679;DHT22;56915;52.046;4.854;2023-04-19T09:22:13;14.00;37.80
69679;DHT22;56915;52.046;4.854;2023-04-19T09:24:40;14.10;36.20
69679;DHT22;56915;52.046;4.854;2023-04-19T09:27:10;14.20;35.50
69679;DHT22;56915;52.046;4.854;2023-04-19T09:29:38;14.10;34.20
69679;DHT22;56915;52.046;4.854;2023-04-19T09:32:05;14.10;33.50
69679;DHT22;56915;52.046;4.854;2023-04-19T09:34:32;14.00;32.50
69679;DHT22;56915;52.046;4.854;2023-04-19T09:37:11;13.90;31.60
69679;DHT22;56915;52.046;4.854;2023-04-19T09:39:58;14.00;32.40
69679;DHT22;56915;52.046;4.854;2023-04-19T09:42:43;14.00;32.60
69679;DHT22;56915;52.046;4.854;2023-04-19T09:45:44;14.10;33.20
69679;DHT22;56915;52.046;4.854;2023-04-19T09:48:12;14.20;34.00
69679;DHT22;56915;52.046;4.854;2023-04-19T09:50:54;14.20;33.60
69679;DHT22;56915;52.046;4.854;2023-04-19T09:53:30;14.30;32.00
69679;DHT22;56915;52.046;4.854;2023-04-19T09:56:02;14.20;31.70
69679;DHT22;56915;52.046;4.854;2023-04-19T09:58:32;14.20;31.60
69679;DHT22;56915;52.046;4.854;2023-04-19T10:01:03;14.20;31.50
69679;DHT22;56915;52.046;4.854;2023-04-19T10:03:33;14.30;31.50
69679;DHT22;56915;52.046;4.854;2023-04-19T10:06:01;14.30;31.30
69679;DHT22;56915;52.046;4.854;2023-04-19T10:08:41;14.30;31.10
69679;DHT22;56915;52.046;4.854;2023-04-19T10:11:09;14.40;31.10
69679;DHT22;56915;52.046;4.854;2023-04-19T10:13:37;14.40;31.10
69679;DHT22;56915;52.046;4.854;2023-04-19T10:16:04;14.50;32.20
69679;DHT22;56915;52.046;4.854;2023-04-19T10:18:45;14.50;30.30
69679;DHT22;56915;52.046;4.854;2023-04-19T10:21:12;14.50;30.80
69679;DHT22;56915;52.046;4.854;2023-04-19T10:23:40;14.60;30.20
69679;DHT22;56915;52.046;4.854;2023-04-19T10:26:07;14.60;30.30
69679;DHT22;56915;52.046;4.854;2023-04-19T10:28:35;14.60;30.20
69679;DHT22;56915;52.046;4.854;2023-04-19T10:31:04;14.60;30.30
69679;DHT22;56915;52.046;4.854;2023-04-19T10:33:36;14.60;30.50
69679;DHT22;56915;52.046;4.854;2023-04-19T10:36:07;14.60;29.70
69679;DHT22;56915;52.046;4.854;2023-04-19T10:38:48;14.60;29.90
69679;DHT22;56915;52.046;4.854;2023-04-19T10:41:18;14.60;29.40
69679;DHT22;56915;52.046;4.854;2023-04-19T10:48:59;14.50;30.00
69679;DHT22;56915;52.046;4.854;2023-04-19T10:51:28;14.60;29.90
69679;DHT22;56915;52.046;4.854;2023-04-19T10:54:02;14.60;29.90
69679;DHT22;56915;52.046;4.854;2023-04-19T11:07:01;14.80;29.80
69679;DHT22;56915;52.046;4.854;2023-04-19T11:09:38;14.70;29.40
69679;DHT22;56915;52.046;4.854;2023-04-19T11:12:10;14.60;30.30
69679;DHT22;56915;52.046;4.854;2023-04-19T11:14:42;14.60;30.30
69679;DHT22;56915;52.046;4.854;2023-04-19T11:17:21;14.60;30.50
69679;DHT22;56915;52.046;4.854;2023-04-19T11:22:40;14.70;30.00
69679;DHT22;56915;52.046;4.854;2023-04-19T11:25:14;14.80;30.40
69679;DHT22;56915;52.046;4.854;2023-04-19T11:27:44;14.90;31.90
69679;DHT22;56915;52.046;4.854;2023-04-19T11:30:16;15.00;30.50
69679;DHT22;56915;52.046;4.854;2023-04-19T11:32:54;15.10;30.60
69679;DHT22;56915;52.046;4.854;2023-04-19T11:35:24;15.20;30.40
69679;DHT22;56915;52.046;4.854;2023-04-19T11:37:51;15.20;29.20
69679;DHT22;56915;52.046;4.854;2023-04-19T11:40:19;15.10;28.60
69679;DHT22;56915;52.046;4.854;2023-04-19T11:42:56;15.10;28.40
69679;DHT22;56915;52.046;4.854;2023-04-19T11:45:27;15.10;28.50
69679;DHT22;56915;52.046;4.854;2023-04-19T11:48:00;15.20;29.30
69679;DHT22;56915;52.046;4.854;2023-04-19T11:50:44;15.30;28.70
69679;DHT22;56915;52.046;4.854;2023-04-19T11:53:20;15.30;27.80
69679;DHT22;56915;52.046;4.854;2023-04-19T11:55:49;15.20;27.30
69679;DHT22;56915;52.046;4.854;2023-04-19T11:58:36;15.20;27.00
69679;DHT22;56915;52.046;4.854;2023-04-19T12:01:04;15.20;27.10
69679;DHT22;56915;52.046;4.854;2023-04-19T12:03:33;15.20;27.60
69679;DHT22;56915;52.046;4.854;2023-04-19T12:06:02;15.20;27.50
69679;DHT22;56915;52.046;4.854;2023-04-19T12:08:34;15.30;27.70
69679;DHT22;56915;52.046;4.854;2023-04-19T12:11:02;15.40;28.20
69679;DHT22;56915;52.046;4.854;2023-04-19T12:13:30;15.40;26.60
69679;DHT22;56915;52.046;4.854;2023-04-19T12:15:58;15.50;27.20
69679;DHT22;56915;52.046;4.854;2023-04-19T12:18:25;15.60;27.70
69679;DHT22;56915;52.046;4.854;2023-04-19T12:20:52;15.60;27.60
69679;DHT22;56915;52.046;4.854;2023-04-19T12:23:20;15.80;28.30
69679;DHT22;56915;52.046;4.854;2023-04-19T12:25:47;15.90;28.80
69679;DHT22;56915;52.046;4.854;2023-04-19T12:28:15;16.00;27.50
69679;DHT22;56915;52.046;4.854;2023-04-19T12:30:42;16.00;27.40
69679;DHT22;56915;52.046;4.854;2023-04-19T12:33:09;16.10;26.70
69679;DHT22;56915;52.046;4.854;2023-04-19T12:35:37;16.10;26.30
69679;DHT22;56915;52.046;4.854;2023-04-19T12:38:04;16.00;25.60
69679;DHT22;56915;52.046;4.854;2023-04-19T12:40:31;15.90;25.50
69679;DHT22;56915;52.046;4.854;2023-04-19T12:42:58;15.90;24.50
69679;DHT22;56915;52.046;4.854;2023-04-19T12:45:25;15.70;24.50
69679;DHT22;56915;52.046;4.854;2023-04-19T12:47:52;15.70;25.30
69679;DHT22;56915;52.046;4.854;2023-04-19T12:50:19;15.70;24.00
69679;DHT22;56915;52.046;4.854;2023-04-19T12:52:46;15.60;24.00
69679;DHT22;56915;52.046;4.854;2023-04-19T12:55:13;15.60;24.10
69679;DHT22;56915;52.046;4.854;2023-04-19T12:57:39;15.60;24.40
69679;DHT22;56915;52.046;4.854;2023-04-19T13:00:08;15.70;24.50
69679;DHT22;56915;52.046;4.854;2023-04-19T13:02:36;15.70;24.00
69679;DHT22;56915;52.046;4.854;2023-04-19T13:05:04;15.60;23.30
69679;DHT22;56915;52.046;4.854;2023-04-19T13:07:31;15.50;23.50
69679;DHT22;56915;52.046;4.854;2023-04-19T13:09:58;15.60;23.80
69679;DHT22;56915;52.046;4.854;2023-04-19T13:12:25;15.70;24.20
69679;DHT22;56915;52.046;4.854;2023-04-19T13:14:52;15.70;23.30
69679;DHT22;56915;52.046;4.854;2023-04-19T13:17:19;15.70;23.30
69679;DHT22;56915;52.046;4.854;2023-04-19T13:19:46;15.60;23.10
69679;DHT22;56915;52.046;4.854;2023-04-19T13:22:13;15.60;23.60
69679;DHT22;56915;52.046;4.854;2023-04-19T13:24:40;15.50;23.40
69679;DHT22;56915;52.046;4.854;2023-04-19T13:27:07;15.40;23.40
69679;DHT22;56915;52.046;4.854;2023-04-19T13:29:35;15.40;23.60
69679;DHT22;56915;52.046;4.854;2023-04-19T13:32:02;15.50;24.00
69679;DHT22;56915;52.046;4.854;2023-04-19T13:34:29;15.60;24.60
69679;DHT22;56915;52.046;4.854;2023-04-19T13:36:55;15.80;24.40
69679;DHT22;56915;52.046;4.854;2023-04-19T13:39:23;15.70;23.90
69679;DHT22;56915;52.046;4.854;2023-04-19T13:41:50;15.70;24.50
69679;DHT22;56915;52.046;4.854;2023-04-19T13:44:17;15.70;24.20
69679;DHT22;56915;52.046;4.854;2023-04-19T13:46:44;15.70;25.10
69679;DHT22;56915;52.046;4.854;2023-04-19T13:49:11;15.70;24.90
69679;DHT22;56915;52.046;4.854;2023-04-19T13:51:37;15.60;25.10
69679;DHT22;56915;52.046;4.854;2023-04-19T13:54:16;15.60;25.90
69679;DHT22;56915;52.046;4.854;2023-04-19T13:56:44;15.70;25.60
69679;DHT22;56915;52.046;4.854;2023-04-19T13:59:11;15.60;25.20
69679;DHT22;56915;52.046;4.854;2023-04-19T14:01:38;15.60;25.70
69679;DHT22;56915;52.046;4.854;2023-04-19T14:04:05;15.60;25.80
69679;DHT22;56915;52.046;4.854;2023-04-19T14:06:32;15.50;25.20
69679;DHT22;56915;52.046;4.854;2023-04-19T14:08:59;15.40;26.10
69679;DHT22;56915;52.046;4.854;2023-04-19T14:11:26;15.50;26.60
69679;DHT22;56915;52.046;4.854;2023-04-19T14:13:53;15.50;25.40
69679;DHT22;56915;52.046;4.854;2023-04-19T14:16:22;15.50;25.00
69679;DHT22;56915;52.046;4.854;2023-04-19T14:18:51;15.50;25.90
69679;DHT22;56915;52.046;4.854;2023-04-19T14:21:18;15.70;25.80
69679;DHT22;56915;52.046;4.854;2023-04-19T14:23:45;15.80;25.30
69679;DHT22;56915;52.046;4.854;2023-04-19T14:26:11;15.90;25.10
69679;DHT22;56915;52.046;4.854;2023-04-19T14:28:38;15.80;25.30
69679;DHT22;56915;52.046;4.854;2023-04-19T14:31:05;15.90;25.60
69679;DHT22;56915;52.046;4.854;2023-04-19T14:33:32;16.10;25.60
69679;DHT22;56915;52.046;4.854;2023-04-19T14:35:59;16.20;25.50
69679;DHT22;56915;52.046;4.854;2023-04-19T14:38:26;16.20;24.50
69679;DHT22;56915;52.046;4.854;2023-04-19T14:40:53;16.00;24.10
69679;DHT22;56915;52.046;4.854;2023-04-19T14:43:20;16.00;24.10
69679;DHT22;56915;52.046;4.854;2023-04-19T14:45:47;16.10;23.70
69679;DHT22;56915;52.046;4.854;2023-04-19T14:48:15;16.10;23.80
69679;DHT22;56915;52.046;4.854;2023-04-19T14:50:42;16.20;24.00
69679;DHT22;56915;52.046;4.854;2023-04-19T14:53:08;16.30;23.90
69679;DHT22;56915;52.046;4.854;2023-04-19T14:55:38;16.40;23.50
69679;DHT22;56915;52.046;4.854;2023-04-19T14:58:05;16.40;23.40
69679;DHT22;56915;52.046;4.854;2023-04-19T15:00:32;16.30;23.50
69679;DHT22;56915;52.046;4.854;2023-04-19T15:03:00;16.50;24.60
69679;DHT22;56915;52.046;4.854;2023-04-19T15:05:27;17.10;24.00
69679;DHT22;56915;52.046;4.854;2023-04-19T15:07:54;18.70;23.60
69679;DHT22;56915;52.046;4.854;2023-04-19T15:10:21;20.40;21.80
69679;DHT22;56915;52.046;4.854;2023-04-19T15:12:48;21.60;21.30
69679;DHT22;56915;52.046;4.854;2023-04-19T15:15:14;22.70;20.00
69679;DHT22;56915;52.046;4.854;2023-04-19T15:17:42;23.40;18.70
69679;DHT22;56915;52.046;4.854;2023-04-19T15:20:09;23.30;18.40
69679;DHT22;56915;52.046;4.854;2023-04-19T15:22:36;23.40;18.40
69679;DHT22;56915;52.046;4.854;2023-04-19T15:25:03;24.10;18.70
69679;DHT22;56915;52.046;4.854;2023-04-19T15:27:29;24.60;18.10
69679;DHT22;56915;52.046;4.854;2023-04-19T15:29:57;25.00;17.90
69679;DHT22;56915;52.046;4.854;2023-04-19T15:32:23;25.80;17.70
69679;DHT22;56915;52.046;4.854;2023-04-19T15:34:50;27.20;17.70
69679;DHT22;56915;52.046;4.854;2023-04-19T15:37:17;27.60;16.90
69679;DHT22;56915;52.046;4.854;2023-04-19T15:39:44;27.00;16.20
69679;DHT22;56915;52.046;4.854;2023-04-19T15:42:11;26.40;16.60
69679;DHT22;56915;52.046;4.854;2023-04-19T15:44:37;26.70;17.10
69679;DHT22;56915;52.046;4.854;2023-04-19T15:47:04;26.60;16.90
69679;DHT22;56915;52.046;4.854;2023-04-19T15:49:31;27.00;17.90
69679;DHT22;56915;52.046;4.854;2023-04-19T15:52:00;27.80;16.70
69679;DHT22;56915;52.046;4.854;2023-04-19T15:54:27;28.30;15.70
69679;DHT22;56915;52.046;4.854;2023-04-19T15:56:54;27.80;15.70
69679;DHT22;56915;52.046;4.854;2023-04-19T15:59:21;27.20;16.10
69679;DHT22;56915;52.046;4.854;2023-04-19T16:01:48;27.30;16.40
69679;DHT22;56915;52.046;4.854;2023-04-19T16:04:15;28.40;17.10